createdAt,value
2022-08-25T01:24:53.486Z,18.77
2022-08-25T01:27:20.543Z,18.77
2022-08-25T01:29:47.624Z,19.23
2022-08-25T01:32:15.324Z,19.85
2022-08-25T01:34:45.166Z,19.27
2022-08-25T01:37:14.518Z,19.77
2022-08-25T01:39:42.106Z,19.23
2022-08-25T01:42:30.910Z,19.65
2022-08-25T01:44:57.917Z,18.80
2022-08-25T01:47:24.961Z,19.30
2022-08-25T01:49:51.930Z,19.45
2022-08-25T01:52:24.848Z,19.65
2022-08-25T01:54:52.011Z,20.02
2022-08-25T01:57:19.065Z,19.98
2022-08-25T01:59:46.447Z,19.27
2022-08-25T02:02:13.889Z,19.98
2022-08-25T02:04:44.408Z,20.23
2022-08-25T02:07:11.727Z,19.60
2022-08-25T02:09:39.277Z,19.63
2022-08-25T02:12:06.601Z,19.65
2022-08-25T02:14:35.749Z,18.70
2022-08-25T02:17:03.778Z,19.30
2022-08-25T02:19:31.453Z,19.23
2022-08-25T02:21:59.307Z,20.30
2022-08-25T02:24:26.399Z,19.90
2022-08-25T02:26:53.553Z,19.73
2022-08-25T02:29:20.593Z,20.27
2022-08-25T02:31:47.657Z,19.55
2022-08-25T02:34:15.397Z,20.25
2022-08-25T02:36:43.779Z,20.02
2022-08-25T02:39:11.830Z,19.58
2022-08-25T02:41:39.894Z,19.77
2022-08-25T02:44:08.214Z,20.33
2022-08-25T02:46:35.965Z,20.30
2022-08-25T02:49:03.233Z,20.67
2022-08-25T02:51:32.099Z,20.52
2022-08-25T02:54:02.210Z,20.35
2022-08-25T02:56:30.033Z,20.23
2022-08-25T02:58:57.218Z,20.10
2022-08-25T03:01:28.538Z,20.15
2022-08-25T03:03:56.678Z,20.38
2022-08-25T03:06:24.646Z,20.20
2022-08-25T03:08:53.371Z,21.17
2022-08-25T03:11:20.907Z,20.95
2022-08-25T03:13:51.250Z,21.58
2022-08-25T03:16:19.233Z,21.45
2022-08-25T03:18:46.580Z,21.52
2022-08-25T03:21:14.056Z,21.40
2022-08-25T03:23:44.642Z,21.27
2022-08-25T03:26:30.134Z,20.88
2022-08-25T03:28:57.535Z,21.80
2022-08-25T03:31:26.969Z,20.80
2022-08-25T03:33:54.970Z,21.52
2022-08-25T03:36:22.109Z,20.88
2022-08-25T03:38:49.358Z,21.75
2022-08-25T03:41:20.055Z,21.55
2022-08-25T03:43:48.245Z,21.73
2022-08-25T03:46:28.372Z,20.95
2022-08-25T03:48:55.774Z,20.75
2022-08-25T03:51:27.081Z,21.35
2022-08-25T03:53:55.207Z,21.08
2022-08-25T03:56:22.723Z,21.10
2022-08-25T03:58:51.602Z,21.85
2022-08-25T04:01:18.818Z,21.20
2022-08-25T04:03:46.268Z,21.70
2022-08-25T04:06:15.215Z,21.33
2022-08-25T04:08:42.411Z,20.85
2022-08-25T04:11:16.379Z,21.40
2022-08-25T04:13:44.996Z,21.25
2022-08-25T04:16:14.388Z,21.40
2022-08-25T04:18:42.518Z,21.70
2022-08-25T04:21:11.085Z,21.42
2022-08-25T04:23:43.473Z,21.90
2022-08-25T04:26:12.926Z,22.52
2022-08-25T04:28:41.014Z,21.50
2022-08-25T04:31:12.333Z,21.67
2022-08-25T04:33:39.819Z,22.48
2022-08-25T04:36:12.078Z,21.88
2022-08-25T04:38:43.827Z,22.10
2022-08-25T04:41:13.283Z,21.35
2022-08-25T04:43:42.030Z,21.08
2022-08-25T04:46:12.509Z,21.10
2022-08-25T04:48:40.849Z,21.23
2022-08-25T04:51:10.894Z,20.42
2022-08-25T04:53:38.961Z,20.25
2022-08-25T04:56:11.370Z,20.63
2022-08-25T04:58:39.394Z,20.58
2022-08-25T05:01:12.361Z,20.63
2022-08-25T05:03:39.455Z,20.00
2022-08-25T05:06:06.758Z,20.02
2022-08-25T05:08:34.126Z,19.73
2022-08-25T05:11:06.239Z,19.92
2022-08-25T05:13:33.295Z,19.45
2022-08-25T05:16:01.164Z,18.90
2022-08-25T05:18:30.757Z,19.20
2022-08-25T05:21:01.757Z,18.95
2022-08-25T05:23:28.866Z,18.58
2022-08-25T05:25:56.001Z,19.00
2022-08-25T05:28:23.310Z,18.45
2022-08-25T05:30:50.400Z,19.08
2022-08-25T05:33:18.470Z,18.75
2022-08-25T05:35:45.525Z,18.67
2022-08-25T05:38:15.225Z,18.92
2022-08-25T05:40:42.872Z,18.88
2022-08-25T05:43:10.678Z,19.13
2022-08-25T05:45:37.775Z,19.38
2022-08-25T05:48:05.097Z,17.75
2022-08-25T05:50:32.514Z,18.80
2022-08-25T05:52:59.542Z,18.50
2022-08-25T05:55:26.594Z,18.70
2022-08-25T05:57:54.554Z,18.90
2022-08-25T06:00:21.601Z,17.90
2022-08-25T06:02:49.785Z,18.35
2022-08-25T06:05:21.659Z,18.75
2022-08-25T06:07:51.323Z,19.05
2022-08-25T06:10:20.292Z,18.42
2022-08-25T06:12:48.267Z,18.65
2022-08-25T06:15:19.655Z,18.73
2022-08-25T06:17:48.154Z,18.30
2022-08-25T06:20:27.397Z,17.73
2022-08-25T06:22:55.129Z,17.77
2022-08-25T06:25:24.467Z,17.90
2022-08-25T06:27:51.629Z,17.40
2022-08-25T06:30:25.710Z,17.65
2022-08-25T06:32:56.197Z,17.63
2022-08-25T06:35:23.261Z,17.73
2022-08-25T06:37:50.258Z,17.60
2022-08-25T06:40:17.561Z,17.20
2022-08-25T06:42:49.562Z,17.65
2022-08-25T06:45:16.861Z,17.92
2022-08-25T06:47:45.549Z,17.13
2022-08-25T06:50:13.186Z,17.45
2022-08-25T06:52:40.212Z,17.95
2022-08-25T06:55:07.433Z,17.38
2022-08-25T06:57:35.957Z,17.33
2022-08-25T07:00:08.430Z,16.92
2022-08-25T07:02:35.656Z,17.42
2022-08-25T07:05:04.686Z,17.60
2022-08-25T07:07:43.749Z,17.75
2022-08-25T07:10:11.525Z,17.45
2022-08-25T07:12:39.153Z,17.77
2022-08-25T07:15:21.956Z,17.45
2022-08-25T07:17:49.609Z,17.15
2022-08-25T07:20:19.401Z,17.23
2022-08-25T07:22:47.527Z,17.23
2022-08-25T07:25:14.526Z,17.33
2022-08-25T07:27:44.827Z,17.50
2022-08-25T07:30:11.881Z,17.38
2022-08-25T07:32:42.256Z,17.40
2022-08-25T07:35:23.984Z,17.27
2022-08-25T07:37:56.695Z,17.20
2022-08-25T07:40:29.091Z,17.10
2022-08-25T07:42:59.618Z,16.98
2022-08-25T07:45:30.864Z,17.40
2022-08-25T07:48:03.265Z,16.77
2022-08-25T07:50:31.462Z,17.00
2022-08-25T07:52:59.495Z,16.75
2022-08-25T07:55:28.167Z,17.02
2022-08-25T07:57:57.445Z,17.27
2022-08-25T08:00:28.283Z,17.52
2022-08-25T08:02:55.849Z,17.17
2022-08-25T08:05:23.919Z,18.30
2022-08-25T08:07:52.067Z,17.52
2022-08-25T08:13:08.153Z,17.77
2022-08-25T08:15:36.861Z,17.88
2022-08-25T08:18:04.546Z,17.70
2022-08-25T08:20:42.464Z,18.20
2022-08-25T08:23:10.882Z,17.67
2022-08-25T08:25:38.018Z,17.95
2022-08-25T08:28:07.295Z,18.85
2022-08-25T08:30:36.730Z,18.27
2022-08-25T08:33:10.101Z,18.90
2022-08-25T08:35:38.506Z,18.15
2022-08-25T08:38:08.958Z,19.40
2022-08-25T08:42:09.645Z,19.00
2022-08-25T08:44:40.034Z,19.85
2022-08-25T08:47:50.770Z,19.67
2022-08-25T08:50:54.634Z,19.27
2022-08-25T08:53:27.521Z,18.50
2022-08-25T08:56:07.066Z,18.98
2022-08-25T08:59:14.344Z,18.10
2022-08-25T09:01:56.677Z,18.10
2022-08-25T09:04:34.525Z,18.30
2022-08-25T09:07:07.838Z,18.70
2022-08-25T09:12:34.193Z,19.10
2022-08-25T09:15:22.777Z,19.00
2022-08-25T09:18:29.304Z,18.23
2022-08-25T09:21:34.238Z,18.48
2022-08-25T09:24:42.255Z,18.77
2022-08-25T09:27:24.803Z,18.60
2022-08-25T09:29:57.597Z,18.13
2022-08-25T09:32:31.321Z,18.40
2022-08-25T09:35:00.558Z,18.83
2022-08-25T09:37:28.373Z,19.42
2022-08-25T09:39:55.532Z,18.48
2022-08-25T09:42:49.957Z,18.98
2022-08-25T09:45:44.521Z,18.70
2022-08-25T09:48:39.720Z,18.38
2022-08-25T09:51:23.904Z,18.55
2022-08-25T09:54:15.765Z,18.90
2022-08-25T09:57:09.336Z,18.38
2022-08-25T09:59:38.291Z,18.25
2022-08-25T10:02:26.531Z,17.88
2022-08-25T10:04:55.071Z,19.08
2022-08-25T10:07:29.261Z,18.30
2022-08-25T10:10:02.130Z,18.05
2022-08-25T10:12:37.341Z,18.98
2022-08-25T10:15:30.728Z,17.83
2022-08-25T10:18:17.591Z,17.73
2022-08-25T10:20:45.130Z,18.92
2022-08-25T10:23:15.248Z,18.42
2022-08-25T10:25:59.461Z,17.67
2022-08-25T10:28:52.821Z,18.10
2022-08-25T10:31:22.191Z,18.42
2022-08-25T10:33:53.003Z,17.98
2022-08-25T10:36:34.553Z,18.17
2022-08-25T10:39:02.781Z,18.08
2022-08-25T10:41:41.516Z,18.20
2022-08-25T10:44:39.787Z,17.90
2022-08-25T10:47:34.377Z,20.25
2022-08-25T10:53:09.083Z,17.92
2022-08-25T10:55:52.869Z,17.60
2022-08-25T10:58:50.218Z,18.98
2022-08-25T11:01:36.658Z,18.02
2022-08-25T11:04:28.759Z,17.98
2022-08-25T11:07:49.576Z,18.00
2022-08-25T11:10:48.694Z,18.73
2022-08-25T11:13:41.422Z,18.88
2022-08-25T11:16:18.499Z,18.83
2022-08-25T11:19:05.507Z,18.80
2022-08-25T11:21:52.575Z,18.15
2022-08-25T11:24:38.403Z,17.50
2022-08-25T11:27:13.845Z,18.70
2022-08-25T11:29:43.856Z,18.15
2022-08-25T11:32:11.506Z,17.95
2022-08-25T11:34:43.788Z,18.00
2022-08-25T11:37:28.066Z,18.27
2022-08-25T11:42:35.157Z,18.27
2022-08-25T11:45:12.186Z,18.00
2022-08-25T11:48:14.867Z,17.85
2022-08-25T11:51:03.246Z,19.02
2022-08-25T11:53:35.328Z,18.20
2022-08-25T11:56:31.681Z,18.42
2022-08-25T11:58:59.863Z,18.77
2022-08-25T12:01:44.611Z,18.58
2022-08-25T12:04:16.344Z,18.15
2022-08-25T12:07:08.998Z,18.45
2022-08-25T12:09:53.942Z,18.08
2022-08-25T12:12:37.423Z,18.33
2022-08-25T12:15:29.232Z,19.30
2022-08-25T12:18:23.236Z,18.38
2022-08-25T12:20:55.032Z,18.23
2022-08-25T12:23:45.828Z,18.45
2022-08-25T12:27:00.080Z,18.13
2022-08-25T12:29:27.122Z,19.10
2022-08-25T12:31:59.148Z,18.58
2022-08-25T12:34:46.444Z,17.95
2022-08-25T12:37:15.883Z,18.95
2022-08-25T12:39:58.960Z,19.35
2022-08-25T12:42:43.327Z,19.25
2022-08-25T12:45:25.549Z,18.50
2022-08-25T12:47:54.738Z,18.58
2022-08-25T12:50:36.484Z,19.52
2022-08-25T12:53:12.530Z,18.52
2022-08-25T12:55:46.743Z,18.00
2022-08-25T12:58:14.306Z,17.92
2022-08-25T13:01:02.179Z,18.42
2022-08-25T13:04:10.371Z,18.52
2022-08-25T13:07:00.582Z,18.33
2022-08-25T13:09:58.944Z,18.08
2022-08-25T13:12:42.455Z,17.60
2022-08-25T13:15:14.922Z,17.77
2022-08-25T13:17:42.466Z,17.33
2022-08-25T13:20:17.304Z,17.02
2022-08-25T13:22:47.522Z,17.73
2022-08-25T13:25:23.068Z,17.83
2022-08-25T13:28:00.852Z,17.35
2022-08-25T13:30:39.286Z,17.75
2022-08-25T13:33:20.055Z,17.58
2022-08-25T13:36:15.653Z,17.70
2022-08-25T13:38:46.561Z,17.23
2022-08-25T13:41:29.278Z,17.05
2022-08-25T13:44:00.856Z,16.85
2022-08-25T13:46:29.690Z,17.23
2022-08-25T13:49:08.844Z,17.35
2022-08-25T13:51:37.398Z,17.27
2022-08-25T13:54:08.466Z,16.45
2022-08-25T13:56:41.120Z,16.10
2022-08-25T13:59:27.490Z,16.67
2022-08-25T14:01:56.255Z,17.20
2022-08-25T14:04:51.360Z,16.90
2022-08-25T14:07:22.578Z,17.55
2022-08-25T14:09:54.429Z,17.80
2022-08-25T14:12:44.823Z,18.13
2022-08-25T14:15:18.312Z,19.05
2022-08-25T14:18:15.045Z,17.88
2022-08-25T14:20:51.044Z,17.73
2022-08-25T14:23:30.746Z,17.08
2022-08-25T14:25:58.885Z,17.60
2022-08-25T14:28:32.068Z,16.88
2022-08-25T14:31:30.622Z,17.80
2022-08-25T14:34:09.786Z,17.02
2022-08-25T14:36:39.665Z,17.45
2022-08-25T14:39:08.648Z,18.05
2022-08-25T14:41:41.059Z,17.58
2022-08-25T14:44:09.520Z,17.30
2022-08-25T14:46:49.027Z,17.17
2022-08-25T14:49:24.838Z,17.38
2022-08-25T14:51:52.410Z,17.70
2022-08-25T14:54:22.549Z,17.45
2022-08-25T14:56:50.851Z,17.13
2022-08-25T14:59:18.597Z,17.08
2022-08-25T15:01:45.809Z,17.85
2022-08-25T15:04:19.181Z,17.35
2022-08-25T15:06:47.980Z,17.45
2022-08-25T15:09:16.736Z,17.02
2022-08-25T15:11:48.349Z,17.17
2022-08-25T15:14:19.202Z,17.50
2022-08-25T15:16:57.632Z,18.60
2022-08-25T15:19:27.222Z,17.67
2022-08-25T15:21:57.853Z,17.55
2022-08-25T15:24:27.074Z,17.92
2022-08-25T15:26:59.094Z,17.75
2022-08-25T15:29:29.912Z,18.30
2022-08-25T15:31:58.909Z,18.20
2022-08-25T15:34:26.242Z,17.60
2022-08-25T15:36:53.858Z,16.90
2022-08-25T15:39:21.475Z,17.00
2022-08-25T15:41:52.352Z,17.45
2022-08-25T15:44:20.683Z,18.45
2022-08-25T15:46:49.905Z,18.08
2022-08-25T15:49:20.607Z,17.30
2022-08-25T15:51:52.597Z,17.37
2022-08-25T15:54:20.863Z,16.92
2022-08-25T15:56:47.981Z,17.40
2022-08-25T15:59:15.578Z,17.33
2022-08-25T16:01:46.532Z,17.35
2022-08-25T16:04:14.555Z,16.55
2022-08-25T16:06:41.901Z,17.33
2022-08-25T16:09:09.066Z,17.20
2022-08-25T16:11:38.726Z,16.95
2022-08-25T16:14:06.455Z,17.35
2022-08-25T16:16:34.370Z,17.73
2022-08-25T16:19:02.539Z,17.60
2022-08-25T16:21:35.412Z,17.15
2022-08-25T16:24:07.845Z,17.53
2022-08-25T16:26:37.886Z,18.05
2022-08-25T16:29:15.757Z,17.95
2022-08-25T16:31:44.083Z,17.77
2022-08-25T16:34:11.515Z,18.27
2022-08-25T16:36:40.158Z,17.83
2022-08-25T16:39:10.125Z,18.35
2022-08-25T16:41:37.441Z,17.83
2022-08-25T16:44:11.291Z,18.52
2022-08-25T16:46:40.764Z,18.33
2022-08-25T16:49:09.398Z,18.60
2022-08-25T16:51:38.255Z,19.02
2022-08-25T16:54:25.568Z,19.50
2022-08-25T16:56:54.763Z,18.77
2022-08-25T16:59:22.315Z,21.30
2022-08-25T17:01:51.279Z,18.58
2022-08-25T17:04:18.527Z,18.85
2022-08-25T17:06:49.623Z,19.70
2022-08-25T17:09:23.055Z,19.17
2022-08-25T17:11:54.388Z,19.58
2022-08-25T17:14:22.231Z,19.60
2022-08-25T17:16:51.339Z,18.10
2022-08-25T17:19:18.988Z,18.60
2022-08-25T17:21:47.121Z,18.85
2022-08-25T17:24:17.248Z,19.08
2022-08-25T17:26:50.195Z,18.85
2022-08-25T17:29:18.677Z,18.67
2022-08-25T17:31:48.547Z,18.60
2022-08-25T17:34:16.677Z,17.85
2022-08-25T17:36:44.406Z,17.77
2022-08-25T17:39:14.346Z,18.20
2022-08-25T17:41:43.156Z,18.63
2022-08-25T17:44:10.176Z,18.55
2022-08-25T17:46:44.116Z,17.42
2022-08-25T17:49:15.082Z,17.65
2022-08-25T17:51:42.946Z,17.88
2022-08-25T17:54:10.986Z,17.10
2022-08-25T17:56:38.292Z,17.38
2022-08-25T17:59:06.152Z,17.30
2022-08-25T18:01:40.629Z,17.80
2022-08-25T18:04:17.627Z,17.55
2022-08-25T18:06:46.479Z,17.20
2022-08-25T18:09:14.197Z,18.08
2022-08-25T18:11:41.297Z,18.13
2022-08-25T18:14:11.481Z,17.90
2022-08-25T18:16:39.034Z,18.20
2022-08-25T18:19:06.618Z,18.88
2022-08-25T18:21:37.841Z,18.60
2022-08-25T18:24:06.501Z,18.25
2022-08-25T18:26:33.827Z,18.42
2022-08-25T18:29:01.565Z,17.70
2022-08-25T18:31:28.636Z,17.85
2022-08-25T18:33:55.752Z,18.02
2022-08-25T18:36:22.770Z,18.08
2022-08-25T18:39:09.238Z,18.30
2022-08-25T18:41:41.288Z,18.55
2022-08-25T18:44:10.604Z,18.63
2022-08-25T18:46:38.337Z,18.02
2022-08-25T18:49:05.990Z,17.95
2022-08-25T18:51:33.329Z,17.73
2022-08-25T18:54:01.374Z,18.10
2022-08-25T18:56:29.041Z,18.85
2022-08-25T18:58:57.165Z,18.23
2022-08-25T19:01:24.807Z,18.20
2022-08-25T19:03:52.005Z,18.85
2022-08-25T19:06:19.600Z,18.77
2022-08-25T19:08:48.358Z,18.55
2022-08-25T19:11:16.697Z,19.55
2022-08-25T19:13:44.694Z,19.05
2022-08-25T19:16:20.701Z,19.23
2022-08-25T19:18:50.101Z,18.67
2022-08-25T19:21:22.491Z,18.15
2022-08-25T19:23:51.288Z,18.20
2022-08-25T19:26:20.419Z,19.27
2022-08-25T19:28:49.527Z,18.80
2022-08-25T19:31:23.049Z,19.52
2022-08-25T19:33:52.603Z,19.20
2022-08-25T19:36:23.908Z,18.90
2022-08-25T19:38:58.390Z,18.60
2022-08-25T19:41:27.537Z,19.35
2022-08-25T19:43:57.417Z,18.52
2022-08-25T19:46:32.768Z,18.58
2022-08-25T19:49:13.116Z,18.75
2022-08-25T19:51:44.163Z,18.50
2022-08-25T19:54:19.138Z,18.33
2022-08-25T19:56:54.598Z,18.52
2022-08-25T20:01:53.674Z,18.75
2022-08-25T20:04:21.142Z,18.55
2022-08-25T20:06:51.840Z,18.70
2022-08-25T20:09:36.039Z,18.60
2022-08-25T20:12:06.904Z,18.40
2022-08-25T20:14:34.880Z,18.63
2022-08-25T20:17:02.437Z,18.80
2022-08-25T20:19:30.649Z,18.00
2022-08-25T20:21:57.773Z,18.20
2022-08-25T20:24:43.932Z,18.95
2022-08-25T20:27:11.557Z,18.77
2022-08-25T20:29:38.695Z,19.13
2022-08-25T20:32:06.053Z,19.52
2022-08-25T20:34:33.788Z,18.95
2022-08-25T20:37:01.211Z,19.05
2022-08-25T20:39:28.266Z,20.13
2022-08-25T20:41:55.657Z,19.40
2022-08-25T20:44:24.015Z,18.20
2022-08-25T20:46:51.773Z,19.17
2022-08-25T20:49:21.718Z,20.17
2022-08-25T20:51:50.615Z,20.23
2022-08-25T20:54:18.572Z,19.45
2022-08-25T20:56:45.570Z,19.17
2022-08-25T20:59:13.902Z,18.85
2022-08-25T21:01:42.445Z,18.88
2022-08-25T21:04:15.030Z,19.05
2022-08-25T21:06:43.235Z,19.40
2022-08-25T21:09:15.806Z,18.88
2022-08-25T21:11:45.056Z,19.40
2022-08-25T21:14:13.193Z,18.75
2022-08-25T21:16:42.076Z,18.77
2022-08-25T21:19:11.090Z,18.58
2022-08-25T21:21:40.041Z,18.20
2022-08-25T21:24:10.059Z,19.08
2022-08-25T21:26:49.002Z,19.10
2022-08-25T21:29:18.486Z,18.83
2022-08-25T21:31:46.585Z,18.40
2022-08-25T21:34:17.262Z,18.60
2022-08-25T21:36:46.716Z,19.25
2022-08-25T21:39:14.772Z,18.05
2022-08-25T21:41:44.338Z,19.23
2022-08-25T21:44:13.956Z,19.08
2022-08-25T21:46:41.345Z,18.60
2022-08-25T21:49:08.922Z,18.88
2022-08-25T21:51:41.685Z,18.92
2022-08-25T21:54:12.460Z,19.55
2022-08-25T21:57:03.986Z,18.52
2022-08-25T21:59:35.004Z,18.80
2022-08-25T22:02:05.690Z,18.45
2022-08-25T22:04:33.363Z,19.83
2022-08-25T22:07:01.406Z,19.60
2022-08-25T22:09:29.981Z,19.52
2022-08-25T22:11:57.369Z,19.38
2022-08-25T22:14:26.907Z,19.13
2022-08-25T22:16:55.247Z,18.48
2022-08-25T22:19:23.333Z,18.67
2022-08-25T22:21:53.146Z,19.13
2022-08-25T22:24:20.986Z,18.40
2022-08-25T22:26:49.223Z,18.92
2022-08-25T22:29:24.847Z,19.88
2022-08-25T22:31:59.814Z,19.50
2022-08-25T22:34:32.719Z,19.50
2022-08-25T22:37:02.027Z,20.05
2022-08-25T22:39:31.637Z,19.65
2022-08-25T22:41:59.951Z,19.40
2022-08-25T22:44:26.981Z,19.65
2022-08-25T22:46:54.294Z,19.50
2022-08-25T22:49:21.981Z,20.05
2022-08-25T22:51:49.193Z,19.75
2022-08-25T22:54:16.250Z,19.17
2022-08-25T22:56:43.768Z,19.88
2022-08-25T22:59:13.970Z,19.15
2022-08-25T23:01:45.189Z,19.35
2022-08-25T23:04:12.762Z,19.77
2022-08-25T23:06:40.445Z,19.20
2022-08-25T23:09:10.898Z,20.40
2022-08-25T23:11:38.901Z,19.88
2022-08-25T23:14:09.598Z,20.08
2022-08-25T23:16:38.095Z,19.48
2022-08-25T23:19:05.139Z,19.63
2022-08-25T23:21:51.838Z,19.50
2022-08-25T23:24:29.502Z,19.85
2022-08-25T23:26:58.663Z,20.02
2022-08-25T23:29:25.889Z,19.63
2022-08-25T23:31:53.594Z,19.08
2022-08-25T23:34:23.426Z,19.60
2022-08-25T23:36:51.285Z,20.35
2022-08-25T23:39:18.823Z,19.13
2022-08-25T23:41:49.620Z,19.20
2022-08-25T23:44:17.536Z,19.83
2022-08-25T23:46:47.188Z,19.67
2022-08-25T23:49:18.209Z,20.13
2022-08-25T23:51:47.140Z,19.45
2022-08-25T23:54:15.913Z,19.10
2022-08-25T23:56:51.921Z,19.88
2022-08-25T23:59:24.614Z,19.58
